EZY79NW EGAC-EGKK
Flight info
| Callsign | EZY79NW |
|---|---|
| Flight time | 0h 55m |
| Altitude | 33000 |
| Route | DUFFY L10 RINGA DCT BABGU DCT ETIGA DCT INKOB Q39 NOMSU UQ4 WAL L151 DISIT |
| Aircraft | A319/M-SDE2E3FGIJ1RWXYZ/LB1 |
Departure
| Time | 2026-05-04 20:58 |
|---|---|
| Airport | George Best Belfast City Airport (EGAC) |
Arrival
| Time | 2026-05-04 21:54 |
|---|---|
| Airport | London Gatwick Airport (EGKK) |
| Time | Latitude | Longitude | Altitude | Speed | Heading |
|---|---|---|---|---|---|
| 2026-05-04 20:31 | 54.61432 | -5.87216 | 24 ft | 0 kts | 124° |
| 2026-05-04 20:49 | 54.61444 | -5.87242 | 23 ft | 4 kts | 136° |
| 2026-05-04 20:49 | 54.61465 | -5.87267 | 23 ft | 4 kts | 165° |
| 2026-05-04 20:49 | 54.61490 | -5.87269 | 23 ft | 4 kts | 204° |
| 2026-05-04 20:50 | 54.61498 | -5.87262 | 23 ft | 0 kts | 214° |
| 2026-05-04 20:54 | 54.61493 | -5.87268 | 23 ft | 2 kts | 214° |
| 2026-05-04 20:54 | 54.61483 | -5.87280 | 25 ft | 3 kts | 214° |
| 2026-05-04 20:55 | 54.61455 | -5.87313 | 23 ft | 7 kts | 215° |
| 2026-05-04 20:55 | 54.61412 | -5.87376 | 23 ft | 9 kts | 230° |
| 2026-05-04 20:55 | 54.61375 | -5.87463 | 23 ft | 9 kts | 227° |
| 2026-05-04 20:55 | 54.61323 | -5.87533 | 23 ft | 10 kts | 216° |
| 2026-05-04 20:56 | 54.61263 | -5.87591 | 23 ft | 10 kts | 208° |
| 2026-05-04 20:56 | 54.61200 | -5.87661 | 23 ft | 11 kts | 214° |
| 2026-05-04 20:56 | 54.61135 | -5.87739 | 23 ft | 12 kts | 215° |
| 2026-05-04 20:56 | 54.61088 | -5.87804 | 23 ft | 4 kts | 235° |
| 2026-05-04 20:57 | 54.61081 | -5.87851 | 23 ft | 4 kts | 266° |
| 2026-05-04 20:57 | 54.61092 | -5.87920 | 24 ft | 9 kts | 295° |
| 2026-05-04 20:57 | 54.61135 | -5.88018 | 22 ft | 11 kts | 316° |
| 2026-05-04 20:57 | 54.61198 | -5.87980 | 23 ft | 12 kts | 36° |
| 2026-05-04 20:58 | 54.61428 | -5.87707 | 20 ft | 82 kts | 34° |
| 2026-05-04 20:58 | 54.62103 | -5.86908 | 30 ft | 150 kts | 34° |
| 2026-05-04 20:58 | 54.62986 | -5.85856 | 644 ft | 154 kts | 33° |
| 2026-05-04 20:58 | 54.63879 | -5.84817 | 1389 ft | 159 kts | 31° |
| 2026-05-04 20:59 | 54.64851 | -5.83667 | 1788 ft | 181 kts | 31° |
| 2026-05-04 20:59 | 54.65942 | -5.82303 | 2166 ft | 207 kts | 35° |
| 2026-05-04 20:59 | 54.66787 | -5.80089 | 2596 ft | 242 kts | 73° |
| 2026-05-04 20:59 | 54.66664 | -5.77065 | 3163 ft | 268 kts | 113° |
| 2026-05-04 21:00 | 54.65471 | -5.74595 | 4078 ft | 273 kts | 146° |
| 2026-05-04 21:00 | 54.63796 | -5.73057 | 5126 ft | 274 kts | 160° |
| 2026-05-04 21:00 | 54.61998 | -5.71944 | 6111 ft | 277 kts | 165° |
| 2026-05-04 21:00 | 54.60144 | -5.70923 | 6998 ft | 282 kts | 164° |
| 2026-05-04 21:01 | 54.58287 | -5.69863 | 7882 ft | 287 kts | 163° |
| 2026-05-04 21:01 | 54.56395 | -5.68701 | 8795 ft | 291 kts | 161° |
| 2026-05-04 21:01 | 54.54491 | -5.67452 | 9705 ft | 295 kts | 160° |
| 2026-05-04 21:01 | 54.52565 | -5.66130 | 10388 ft | 307 kts | 160° |
| 2026-05-04 21:02 | 54.50514 | -5.64694 | 10733 ft | 328 kts | 159° |
| 2026-05-04 21:02 | 54.48367 | -5.63176 | 11402 ft | 336 kts | 159° |
| 2026-05-04 21:02 | 54.46191 | -5.61630 | 12196 ft | 340 kts | 159° |
| 2026-05-04 21:02 | 54.43993 | -5.60068 | 13007 ft | 344 kts | 159° |
| 2026-05-04 21:03 | 54.41803 | -5.58358 | 13799 ft | 348 kts | 152° |
| 2026-05-04 21:03 | 54.39811 | -5.55949 | 14512 ft | 353 kts | 140° |
| 2026-05-04 21:03 | 54.38129 | -5.52845 | 15199 ft | 358 kts | 127° |
| 2026-05-04 21:03 | 54.36705 | -5.49321 | 15888 ft | 361 kts | 125° |
| 2026-05-04 21:04 | 54.35272 | -5.45765 | 16608 ft | 363 kts | 125° |
| 2026-05-04 21:04 | 54.33822 | -5.42196 | 17306 ft | 366 kts | 125° |
| 2026-05-04 21:04 | 54.32360 | -5.38605 | 17996 ft | 369 kts | 125° |
| 2026-05-04 21:04 | 54.30879 | -5.34983 | 18635 ft | 373 kts | 125° |
| 2026-05-04 21:05 | 54.29386 | -5.31336 | 19221 ft | 376 kts | 125° |
| 2026-05-04 21:05 | 54.27878 | -5.27658 | 19785 ft | 379 kts | 126° |
| 2026-05-04 21:05 | 54.26291 | -5.24028 | 20357 ft | 383 kts | 128° |
| 2026-05-04 21:05 | 54.24615 | -5.20463 | 20932 ft | 386 kts | 130° |
| 2026-05-04 21:06 | 54.22884 | -5.16929 | 21491 ft | 390 kts | 130° |
| 2026-05-04 21:06 | 54.21120 | -5.13384 | 22058 ft | 393 kts | 130° |
| 2026-05-04 21:06 | 54.19343 | -5.09806 | 22612 ft | 397 kts | 130° |
| 2026-05-04 21:06 | 54.17561 | -5.06180 | 23160 ft | 400 kts | 130° |
| 2026-05-04 21:07 | 54.15773 | -5.02505 | 23701 ft | 404 kts | 130° |
| 2026-05-04 21:07 | 54.13978 | -4.98794 | 24143 ft | 408 kts | 129° |
| 2026-05-04 21:07 | 54.12199 | -4.95106 | 24634 ft | 409 kts | 129° |
| 2026-05-04 21:07 | 54.10387 | -4.91352 | 25101 ft | 411 kts | 129° |
| 2026-05-04 21:08 | 54.08565 | -4.87586 | 25556 ft | 414 kts | 129° |
| 2026-05-04 21:08 | 54.06724 | -4.83800 | 25977 ft | 416 kts | 129° |
| 2026-05-04 21:08 | 54.04868 | -4.79991 | 26402 ft | 419 kts | 129° |
| 2026-05-04 21:08 | 54.03022 | -4.76127 | 26813 ft | 422 kts | 128° |
| 2026-05-04 21:09 | 54.01225 | -4.72169 | 27236 ft | 425 kts | 126° |
| 2026-05-04 21:09 | 53.99451 | -4.68136 | 27675 ft | 427 kts | 126° |
| 2026-05-04 21:09 | 53.97679 | -4.64069 | 28094 ft | 430 kts | 126° |
| 2026-05-04 21:09 | 53.95892 | -4.59982 | 28496 ft | 432 kts | 126° |
| 2026-05-04 21:10 | 53.94084 | -4.55887 | 28900 ft | 435 kts | 126° |
| 2026-05-04 21:10 | 53.92252 | -4.51779 | 29298 ft | 438 kts | 127° |
| 2026-05-04 21:10 | 53.90400 | -4.47657 | 29688 ft | 440 kts | 126° |
| 2026-05-04 21:10 | 53.88539 | -4.43531 | 30159 ft | 441 kts | 126° |
| 2026-05-04 21:11 | 53.86677 | -4.39403 | 30509 ft | 442 kts | 126° |
| 2026-05-04 21:11 | 53.84857 | -4.35187 | 30836 ft | 444 kts | 124° |
| 2026-05-04 21:11 | 53.83090 | -4.30897 | 31156 ft | 446 kts | 123° |
| 2026-05-04 21:11 | 53.81348 | -4.26548 | 31468 ft | 447 kts | 122° |
| 2026-05-04 21:12 | 53.79630 | -4.22227 | 31796 ft | 448 kts | 122° |
| 2026-05-04 21:12 | 53.77885 | -4.17865 | 32241 ft | 447 kts | 123° |
| 2026-05-04 21:12 | 53.76129 | -4.13536 | 32705 ft | 445 kts | 123° |
| 2026-05-04 21:12 | 53.74369 | -4.09240 | 33028 ft | 445 kts | 123° |
| 2026-05-04 21:13 | 53.70872 | -4.00791 | 33095 ft | 424 kts | 123° |
| 2026-05-04 21:13 | 53.67530 | -3.92781 | 33104 ft | 418 kts | 123° |
| 2026-05-04 21:14 | 53.64205 | -3.84808 | 33093 ft | 414 kts | 123° |
| 2026-05-04 21:14 | 53.60903 | -3.76887 | 33093 ft | 413 kts | 123° |
| 2026-05-04 21:15 | 53.57604 | -3.68987 | 33092 ft | 413 kts | 123° |
| 2026-05-04 21:15 | 53.54294 | -3.61095 | 33101 ft | 413 kts | 123° |
| 2026-05-04 21:16 | 53.50977 | -3.53228 | 33092 ft | 412 kts | 123° |
| 2026-05-04 21:16 | 53.47665 | -3.45375 | 33090 ft | 412 kts | 121° |
| 2026-05-04 21:17 | 53.45164 | -3.36821 | 33086 ft | 408 kts | 110° |
| 2026-05-04 21:17 | 53.42935 | -3.28061 | 33080 ft | 408 kts | 111° |
| 2026-05-04 21:18 | 53.40667 | -3.19336 | 33077 ft | 409 kts | 115° |
| 2026-05-04 21:18 | 53.37280 | -3.11673 | 33076 ft | 414 kts | 135° |
| 2026-05-04 21:19 | 53.32625 | -3.05952 | 33080 ft | 416 kts | 143° |
| 2026-05-04 21:19 | 53.27863 | -3.00535 | 33075 ft | 416 kts | 143° |
| 2026-05-04 21:20 | 53.23074 | -2.95088 | 33074 ft | 416 kts | 143° |
| 2026-05-04 21:20 | 53.18280 | -2.89657 | 33086 ft | 416 kts | 143° |
| 2026-05-04 21:21 | 53.13492 | -2.84249 | 33088 ft | 415 kts | 143° |
| 2026-05-04 21:21 | 53.08711 | -2.78860 | 33086 ft | 415 kts | 143° |
| 2026-05-04 21:22 | 53.03929 | -2.73488 | 33088 ft | 415 kts | 143° |
| 2026-05-04 21:22 | 52.99144 | -2.68124 | 33083 ft | 415 kts | 143° |
| 2026-05-04 21:23 | 52.94366 | -2.62781 | 33096 ft | 414 kts | 143° |
| 2026-05-04 21:23 | 52.89601 | -2.57460 | 33098 ft | 413 kts | 143° |
| 2026-05-04 21:24 | 52.85635 | -2.53058 | 33100 ft | 412 kts | 143° |
| 2026-05-04 21:24 | 52.80869 | -2.47782 | 33093 ft | 412 kts | 143° |
| 2026-05-04 21:25 | 52.76109 | -2.42520 | 33083 ft | 412 kts | 143° |
| 2026-05-04 21:25 | 52.71327 | -2.37240 | 33066 ft | 421 kts | 145° |
| 2026-05-04 21:26 | 52.68868 | -2.34529 | 32472 ft | 427 kts | 145° |
| 2026-05-04 21:26 | 52.66408 | -2.31826 | 31808 ft | 426 kts | 145° |
| 2026-05-04 21:26 | 52.63950 | -2.29124 | 31231 ft | 423 kts | 146° |
| 2026-05-04 21:26 | 52.61513 | -2.26446 | 30730 ft | 418 kts | 146° |
| 2026-05-04 21:27 | 52.59107 | -2.23806 | 30268 ft | 413 kts | 146° |
| 2026-05-04 21:27 | 52.56726 | -2.21199 | 29704 ft | 409 kts | 146° |
| 2026-05-04 21:27 | 52.54355 | -2.18613 | 29117 ft | 406 kts | 147° |
| 2026-05-04 21:27 | 52.52022 | -2.16077 | 28698 ft | 399 kts | 147° |
| 2026-05-04 21:28 | 52.49726 | -2.13585 | 28274 ft | 393 kts | 148° |
| 2026-05-04 21:28 | 52.47462 | -2.11127 | 27842 ft | 388 kts | 148° |
| 2026-05-04 21:28 | 52.45223 | -2.08701 | 27428 ft | 383 kts | 148° |
| 2026-05-04 21:28 | 52.43011 | -2.06303 | 27006 ft | 379 kts | 148° |
| 2026-05-04 21:29 | 52.40823 | -2.03930 | 26573 ft | 376 kts | 148° |
| 2026-05-04 21:29 | 52.38647 | -2.01573 | 26146 ft | 374 kts | 149° |
| 2026-05-04 21:29 | 52.36487 | -1.99234 | 25705 ft | 371 kts | 149° |
| 2026-05-04 21:29 | 52.34336 | -1.96909 | 25238 ft | 369 kts | 149° |
| 2026-05-04 21:30 | 52.32206 | -1.94602 | 24799 ft | 367 kts | 149° |
| 2026-05-04 21:30 | 52.30079 | -1.92306 | 24339 ft | 365 kts | 150° |
| 2026-05-04 21:30 | 52.27962 | -1.90029 | 23881 ft | 364 kts | 150° |
| 2026-05-04 21:30 | 52.25850 | -1.87769 | 23383 ft | 362 kts | 149° |
| 2026-05-04 21:31 | 52.21677 | -1.83296 | 22474 ft | 356 kts | 149° |
| 2026-05-04 21:31 | 52.19619 | -1.81087 | 22028 ft | 352 kts | 149° |
| 2026-05-04 21:31 | 52.17605 | -1.78932 | 21592 ft | 349 kts | 149° |
| 2026-05-04 21:32 | 52.15552 | -1.76741 | 21155 ft | 347 kts | 149° |
| 2026-05-04 21:32 | 52.13573 | -1.74633 | 20737 ft | 344 kts | 149° |
| 2026-05-04 21:32 | 52.11574 | -1.72504 | 20317 ft | 342 kts | 149° |
| 2026-05-04 21:32 | 52.09600 | -1.70401 | 20058 ft | 336 kts | 149° |
| 2026-05-04 21:33 | 52.07656 | -1.68330 | 20052 ft | 333 kts | 149° |
| 2026-05-04 21:33 | 52.05699 | -1.66252 | 19417 ft | 342 kts | 148° |
| 2026-05-04 21:33 | 52.03706 | -1.64137 | 19039 ft | 339 kts | 148° |
| 2026-05-04 21:33 | 52.01751 | -1.62064 | 18765 ft | 333 kts | 148° |
| 2026-05-04 21:34 | 51.99830 | -1.60025 | 18482 ft | 328 kts | 148° |
| 2026-05-04 21:34 | 51.97930 | -1.58007 | 18176 ft | 325 kts | 148° |
| 2026-05-04 21:34 | 51.96045 | -1.56011 | 17883 ft | 323 kts | 148° |
| 2026-05-04 21:34 | 51.94164 | -1.54022 | 17602 ft | 322 kts | 148° |
| 2026-05-04 21:35 | 51.92291 | -1.52043 | 17318 ft | 321 kts | 148° |
| 2026-05-04 21:35 | 51.90423 | -1.50072 | 17042 ft | 320 kts | 148° |
| 2026-05-04 21:35 | 51.88557 | -1.48109 | 16762 ft | 319 kts | 148° |
| 2026-05-04 21:35 | 51.86697 | -1.46160 | 16476 ft | 318 kts | 148° |
| 2026-05-04 21:36 | 51.84842 | -1.44219 | 16205 ft | 317 kts | 148° |
| 2026-05-04 21:36 | 51.82993 | -1.42281 | 15931 ft | 316 kts | 148° |
| 2026-05-04 21:36 | 51.81150 | -1.40351 | 15655 ft | 315 kts | 148° |
| 2026-05-04 21:36 | 51.79313 | -1.38427 | 15380 ft | 314 kts | 147° |
| 2026-05-04 21:37 | 51.77482 | -1.36509 | 15094 ft | 312 kts | 147° |
| 2026-05-04 21:37 | 51.75671 | -1.34612 | 14902 ft | 310 kts | 147° |
| 2026-05-04 21:37 | 51.73859 | -1.32719 | 14730 ft | 310 kts | 147° |
| 2026-05-04 21:37 | 51.72045 | -1.30825 | 14553 ft | 310 kts | 147° |
| 2026-05-04 21:38 | 51.70244 | -1.28944 | 14374 ft | 309 kts | 147° |
| 2026-05-04 21:38 | 51.68440 | -1.27064 | 14202 ft | 308 kts | 147° |
| 2026-05-04 21:38 | 51.66641 | -1.25190 | 14022 ft | 308 kts | 147° |
| 2026-05-04 21:38 | 51.64838 | -1.23318 | 13850 ft | 308 kts | 147° |
| 2026-05-04 21:39 | 51.63042 | -1.21455 | 13653 ft | 307 kts | 147° |
| 2026-05-04 21:39 | 51.61249 | -1.19597 | 13478 ft | 306 kts | 147° |
| 2026-05-04 21:39 | 51.59459 | -1.17742 | 13299 ft | 306 kts | 147° |
| 2026-05-04 21:39 | 51.57677 | -1.15896 | 13125 ft | 305 kts | 147° |
| 2026-05-04 21:40 | 51.55895 | -1.14053 | 12948 ft | 304 kts | 147° |
| 2026-05-04 21:40 | 51.54123 | -1.12220 | 12774 ft | 302 kts | 147° |
| 2026-05-04 21:40 | 51.52363 | -1.10401 | 12594 ft | 301 kts | 147° |
| 2026-05-04 21:40 | 51.50603 | -1.08585 | 12427 ft | 300 kts | 147° |
| 2026-05-04 21:41 | 51.48848 | -1.06775 | 12254 ft | 299 kts | 147° |
| 2026-05-04 21:41 | 51.47098 | -1.04969 | 12084 ft | 299 kts | 147° |
| 2026-05-04 21:41 | 51.45350 | -1.03170 | 11899 ft | 298 kts | 147° |
| 2026-05-04 21:41 | 51.43604 | -1.01377 | 11739 ft | 297 kts | 147° |
| 2026-05-04 21:42 | 51.41866 | -0.99593 | 11563 ft | 297 kts | 147° |
| 2026-05-04 21:42 | 51.40129 | -0.97810 | 11394 ft | 296 kts | 147° |
| 2026-05-04 21:42 | 51.38401 | -0.96038 | 11222 ft | 295 kts | 148° |
| 2026-05-04 21:42 | 51.36673 | -0.94269 | 11053 ft | 295 kts | 147° |
| 2026-05-04 21:43 | 51.34946 | -0.92501 | 10883 ft | 295 kts | 147° |
| 2026-05-04 21:43 | 51.33217 | -0.90733 | 10714 ft | 294 kts | 147° |
| 2026-05-04 21:43 | 51.31500 | -0.88979 | 10552 ft | 292 kts | 147° |
| 2026-05-04 21:43 | 51.29793 | -0.87236 | 10385 ft | 290 kts | 147° |
| 2026-05-04 21:44 | 51.28097 | -0.85507 | 10221 ft | 289 kts | 147° |
| 2026-05-04 21:44 | 51.26400 | -0.83778 | 10053 ft | 289 kts | 148° |
| 2026-05-04 21:44 | 51.24713 | -0.82062 | 9882 ft | 287 kts | 148° |
| 2026-05-04 21:44 | 51.23027 | -0.80350 | 9708 ft | 287 kts | 148° |
| 2026-05-04 21:45 | 51.21347 | -0.78645 | 9540 ft | 286 kts | 148° |
| 2026-05-04 21:45 | 51.19670 | -0.76943 | 9379 ft | 286 kts | 148° |
| 2026-05-04 21:45 | 51.17995 | -0.75245 | 9214 ft | 285 kts | 147° |
| 2026-05-04 21:45 | 51.16323 | -0.73548 | 9039 ft | 285 kts | 147° |
| 2026-05-04 21:46 | 51.14658 | -0.71861 | 8830 ft | 282 kts | 147° |
| 2026-05-04 21:46 | 51.13007 | -0.70189 | 8425 ft | 279 kts | 147° |
| 2026-05-04 21:46 | 51.11414 | -0.68582 | 8279 ft | 262 kts | 147° |
| 2026-05-04 21:46 | 51.09921 | -0.67077 | 8146 ft | 247 kts | 147° |
| 2026-05-04 21:47 | 51.08511 | -0.65655 | 8012 ft | 233 kts | 147° |
| 2026-05-04 21:47 | 51.07161 | -0.64292 | 7737 ft | 228 kts | 147° |
| 2026-05-04 21:47 | 51.06037 | -0.62572 | 7370 ft | 225 kts | 118° |
| 2026-05-04 21:47 | 51.05684 | -0.60216 | 6952 ft | 221 kts | 84° |
| 2026-05-04 21:48 | 51.06222 | -0.57991 | 6516 ft | 218 kts | 50° |
| 2026-05-04 21:48 | 51.07457 | -0.56672 | 6058 ft | 216 kts | 15° |
| 2026-05-04 21:48 | 51.08960 | -0.56332 | 5521 ft | 220 kts | 9° |
| 2026-05-04 21:48 | 51.10295 | -0.55277 | 5013 ft | 217 kts | 50° |
| 2026-05-04 21:49 | 51.10807 | -0.53092 | 4513 ft | 215 kts | 92° |
| 2026-05-04 21:49 | 51.10463 | -0.50778 | 4038 ft | 216 kts | 103° |
| 2026-05-04 21:49 | 51.10535 | -0.48502 | 3751 ft | 204 kts | 69° |
| 2026-05-04 21:49 | 51.10996 | -0.46416 | 3486 ft | 195 kts | 75° |
| 2026-05-04 21:50 | 51.11288 | -0.44370 | 3235 ft | 186 kts | 76° |
| 2026-05-04 21:50 | 51.11558 | -0.42413 | 2981 ft | 177 kts | 76° |
| 2026-05-04 21:50 | 51.11818 | -0.40551 | 2747 ft | 168 kts | 76° |
| 2026-05-04 21:50 | 51.12067 | -0.38773 | 2526 ft | 161 kts | 77° |
| 2026-05-04 21:51 | 51.12307 | -0.37055 | 2314 ft | 157 kts | 77° |
| 2026-05-04 21:51 | 51.12543 | -0.35368 | 2105 ft | 156 kts | 77° |
| 2026-05-04 21:51 | 51.12777 | -0.33694 | 1891 ft | 154 kts | 77° |
| 2026-05-04 21:51 | 51.13008 | -0.32036 | 1682 ft | 153 kts | 77° |
| 2026-05-04 21:52 | 51.13236 | -0.30400 | 1469 ft | 149 kts | 77° |
| 2026-05-04 21:52 | 51.13451 | -0.28858 | 1277 ft | 140 kts | 77° |
| 2026-05-04 21:52 | 51.13656 | -0.27383 | 1085 ft | 133 kts | 77° |
| 2026-05-04 21:52 | 51.13856 | -0.25948 | 904 ft | 132 kts | 77° |
| 2026-05-04 21:53 | 51.14055 | -0.24517 | 723 ft | 131 kts | 77° |
| 2026-05-04 21:53 | 51.14249 | -0.23116 | 557 ft | 131 kts | 77° |
| 2026-05-04 21:53 | 51.14445 | -0.21700 | 377 ft | 132 kts | 78° |
| 2026-05-04 21:53 | 51.14640 | -0.20279 | 226 ft | 131 kts | 78° |
| 2026-05-04 21:54 | 51.14818 | -0.18997 | 208 ft | 99 kts | 77° |
| 2026-05-04 21:54 | 51.14930 | -0.18200 | 213 ft | 48 kts | 78° |
| 2026-05-04 21:54 | 51.15019 | -0.17875 | 206 ft | 13 kts | 51° |
| 2026-05-04 21:54 | 51.15050 | -0.17810 | 212 ft | 0 kts | 54° |
| 2026-05-04 21:55 | 51.15062 | -0.17790 | 205 ft | 5 kts | 45° |
| 2026-05-04 21:55 | 51.15104 | -0.17754 | 205 ft | 8 kts | 3° |
| 2026-05-04 21:55 | 51.15129 | -0.17759 | 205 ft | 0 kts | 353° |
| 2026-05-04 21:56 | 51.15131 | -0.17759 | 205 ft | 1 kts | 353° |
| 2026-05-04 21:56 | 51.15149 | -0.17763 | 205 ft | 4 kts | 353° |
| 2026-05-04 21:56 | 51.15190 | -0.17772 | 213 ft | 8 kts | 352° |
| 2026-05-04 21:56 | 51.15244 | -0.17818 | 207 ft | 11 kts | 288° |
| 2026-05-04 21:57 | 51.15229 | -0.17959 | 212 ft | 14 kts | 258° |
| 2026-05-04 21:57 | 51.15233 | -0.18085 | 212 ft | 11 kts | 317° |
| 2026-05-04 21:57 | 51.15312 | -0.18118 | 209 ft | 12 kts | 349° |
| 2026-05-04 21:57 | 51.15396 | -0.18149 | 207 ft | 13 kts | 345° |
| 2026-05-04 21:58 | 51.15485 | -0.18188 | 209 ft | 14 kts | 346° |
| 2026-05-04 21:58 | 51.15581 | -0.18221 | 204 ft | 15 kts | 348° |
| 2026-05-04 21:58 | 51.15662 | -0.18206 | 204 ft | 12 kts | 58° |
| 2026-05-04 21:58 | 51.15682 | -0.18077 | 207 ft | 12 kts | 79° |
| 2026-05-04 21:59 | 51.15701 | -0.17946 | 204 ft | 9 kts | 76° |
| 2026-05-04 21:59 | 51.15715 | -0.17867 | 206 ft | 5 kts | 54° |
| 2026-05-04 21:59 | 51.15752 | -0.17874 | 204 ft | 6 kts | 345° |
| 2026-05-04 21:59 | 51.15780 | -0.17884 | 204 ft | 2 kts | 347° |
| 2026-05-04 22:00 | 51.15782 | -0.17884 | 204 ft | 0 kts | 347° |